Oranmore, Ireland

6:23 PM GMT on February 09, 2016 (GMT +0000)
Oranmore | | Change Station
CLOSE
Current Station
Personal Weather Station
Location: Oranmore, Co.Galway
Elevation: 0 ft
Nearby Weather Stations

Elev 0 ft 53.27 °N, 8.93 °W | Updated 1 minute ago

Rain
Rain
40.5 °F
Feels Like 33 °F
N
12.0
Wind Variable Wind from WNW
Gusts 23.0 mph

Today
High -- | Low -- °F
--% Chance of Precip.
Yesterday
High -- | Low -- °F
Precip. -- in
Pressure 29.30 in
Visibility 6.2 miles
Clouds Few 1400 ft
Scattered Clouds 1800 ft
Mostly Cloudy 4900 ft
Windchill 33 °F
Dew Point 38 °F
Humidity 91%
Rainfall 0.20 in
Snow Depth Not available.
8:06 AM 5:33 PM
New Moon, 2% visible
METAR EINN 091800Z 27024KT 9999 FEW014 SCT018CB BKN049 07/01 Q0992 NOSIG
Pressure 29.30 in
Visibility 6.2 miles
Clouds Few 1400 ft
Scattered Clouds 1800 ft
Mostly Cloudy 4900 ft
Windchill 33 °F
Dew Point 38 °F
Humidity 91%
Rainfall 0.20 in
Snow Depth Not available.
8:06 AM 5:33 PM
New Moon, 2% visible
METAR EINN 091800Z 27024KT 9999 FEW014 SCT018CB BKN049 07/01 Q0992 NOSIG

10-Day Weather Forecast

Almanac

Astronomy

Feb. 09, 2016 Rise Set
Actual Time
Civil Twilight
Nautical Twilight
Astronomical Twilight
Moon
Length of Visible Light
Length of Day
Tomorrow will be .
, % of the Moon is Illuminated

Today's Extremes

Country Highs Country Lows

Community

WunderPhotos

Upload Photos

1,891,655 photos uploaded!

WunderBlog® & News

Nearby

Air Quality

  Air Quality AQ Index Pollutant
Not available.

Snow Depth

Station Depth Elevation

Earthquake Activity

City Distance Mag. Time & Date
Minimum magnitude displayed is 2.5.

Coastal Water Temperatures

Place Temperature

Stations

Nearby Weather Stations

Station Location Temp. Windchill Dew Point Humidity Wind Precip. Elev Updated Type